Apple Grove, North Carolina
Current Conditions -  °F | °C
As of 3:35 AM on Monday 22 Dec 2014 (Local Time) from KGEV Reporting Station
Moderate Fog Moderate Fog  
Wind Chill: 33°   Ceiling: 300
Heat Index: 33°   Visibility: 0.25mi
Dew Point: 33°   Wind: 0mph
Humidity: 100%   Direction: NA
Pressure: 30.09"   Gusts: NA
Location:  36.524°N, 81.538°W
Report Text: KGEV 220835Z AUTO 00000KT 1/4SM FG OVC003 01/01 A3009 RMK AO2 T00070007
Loading
Personal Weather Stations






























Interactive Weather Map New forecast layout! Learn more

10-Day Weather Forecast

Advertisements
Track Severe Weather on mobile